• Join FlightAware (Why Join?)
  • Login
  • US Flag 
10:51AM EDT


 

Airport Tracker/Info


-or-


 

Live Flight TrackerFlight Track Log ✈ GLA182 ✈ 03-May-2013 ✈ KPIR - KDEN

Flight Track Log - Related Links

Times and Time Zones

All times are in EDT time to prevent confusion due to time zone crossing. See the GLA182 flight status page for this flight to view local times or setup timezone preferences in your user account.

Time Position Orientation Groundspeed Altitude Reporting Facility
EDT Latitude Longitude Course Direction KTS MPH feet Rate Location/Type
11:02AM 44.3172 -100.4172 266° West 203 234 6,900  Level Minneapolis Center
11:03AM 44.3011 -100.5133 257° West 206 237 8,300 1,260 Climbing Minneapolis Center
11:04AM 44.2856 -100.5958 255° West 212 244 9,500 1,200 Climbing Minneapolis Center
11:05AM 44.2583 -100.8031 252° West  Level FlightAware Approximate
11:05AM 44.2708 -100.6769 256° West 215 247 10,800  Level Minneapolis Center
11:06AM 44.2345 -100.9063 252° West  Level FlightAware Approximate
11:06AM 44.2467 -100.7603 248° West 222 255 11,900  Level Minneapolis Center
11:07AM 44.2244 -100.8475 250° West 231 266 13,200 1,080 Climbing Minneapolis Center
11:08AM 44.2039 -100.9378 252° West 237 273 14,200 1,020 Climbing Minneapolis Center
11:09AM 44.1808 -101.0278 250° West 241 277 15,400 1,080 Climbing Minneapolis Center
11:10AM 44.1622 -101.1208 254° West 245 282 16,500 1,080 Climbing Minneapolis Center
11:11AM 44.1442 -101.2325 257° West 245 282 17,700 840 Climbing Minneapolis Center
11:12AM 44.1267 -101.3253 255° West 246 283 18,300 780 Climbing Minneapolis Center
11:13AM 44.1025 -101.4164 250° West 249 287 19,300 780 Climbing Minneapolis Center
11:13AM 44.0950 -101.4328 237° Southwest 253 291 19,400 960 Climbing Denver Center
11:14AM 44.0633 -101.5447 249° West 258 297 20,600 960 Climbing Denver Center
11:15AM 44.0358 -101.6364 247° West 258 297 21,400 660 Climbing Denver Center
11:16AM 43.9853 -101.7175 229° Southwest 274 315 22,000 600 Climbing Denver Center
11:17AM 43.9283 -101.7939 224° Southwest 281 323 22,700 600 Climbing Denver Center
11:18AM 43.8611 -101.8569 214° Southwest 287 330 23,300 480 Climbing Denver Center
11:19AM 43.7939 -101.9219 215° Southwest 293 337 23,800 300 Climbing Denver Center
11:20AM 43.7128 -102.0047 216° Southwest 302 348 24,000  Climbing Denver Center
11:21AM 43.6339 -102.0522 204° Southwest 310 357 23,900  Descending Denver Center
11:22AM 43.5517 -102.0978 202° Southwest 316 364 24,000  Climbing Denver Center
11:24AM 43.4703 -102.1392 200° South 317 365 24,000  Level Denver Center
11:25AM 43.3772 -102.1914 202° Southwest 323 372 24,000  Level Denver Center
11:26AM 43.2992 -102.2392 204° Southwest 321 369 24,000 -60 Level Denver Center
11:27AM 43.2097 -102.2972 205° Southwest 320 368 23,900 -60 Descending Denver Center
11:28AM 43.1325 -102.3461 205° Southwest 319 367 23,900  Level Denver Center
11:29AM 43.0461 -102.4119 209° Southwest 319 367 23,900  Level Denver Center
11:30AM 42.9772 -102.4744 214° Southwest 312 359 24,000  Climbing Denver Center
11:31AM 42.9089 -102.5383 214° Southwest 311 358 24,000  Level Denver Center
11:32AM 42.8286 -102.6114 214° Southwest 311 358 24,000  Level Denver Center
11:33AM 42.7581 -102.6742 213° Southwest 315 362 24,000 -60 Level Denver Center
11:34AM 42.6772 -102.7469 214° Southwest 313 360 23,900 -60 Descending Denver Center
11:35AM 42.6103 -102.8131 216° Southwest 312 359 23,900  Level Denver Center
11:36AM 42.5211 -102.9019 216° Southwest 311 358 24,000  Climbing Denver Center
11:37AM 42.4542 -102.9692 217° Southwest 311 358 24,000  Level Denver Center
11:38AM 42.3772 -103.0492 218° Southwest 313 360 24,000  Level Denver Center
11:39AM 42.3106 -103.1169 217° Southwest 313 360 24,000  Level Denver Center
11:40AM 42.2292 -103.1917 214° Southwest 315 362 24,000  Level Denver Center
11:41AM 42.1581 -103.2517 212° Southwest 315 362 24,000 -60 Level Denver Center
11:42AM 42.0739 -103.3194 211° Southwest 314 361 23,900  Descending Denver Center
11:43AM 42.0047 -103.3811 214° Southwest 312 359 24,000  Climbing Denver Center
11:44AM 41.9258 -103.4553 215° Southwest 309 356 24,000 -60 Level Denver Center
11:46AM 41.8300 -103.4858 193° South 322 371 23,900 -60 Descending Denver Center
11:47AM 41.7319 -103.5019 187° South 322 371 23,900  Level Denver Center
11:48AM 41.6478 -103.5217 190° South 321 369 24,000  Climbing Denver Center
11:49AM 41.5486 -103.5467 191° South 322 371 24,000  Level Denver Center
11:50AM 41.4622 -103.5575 185° South 326 375 24,000  Level Denver Center
11:51AM 41.3619 -103.5639 183° South 324 373 24,000 -300 Level Denver Center
11:52AM 41.2758 -103.5717 184° South 324 373 23,400 -960 Descending Denver Center
11:53AM 41.1717 -103.5753 181° South 337 388 22,100 -1,380 Descending Denver Center
11:54AM 41.0831 -103.5828 184° South 333 383 20,600 -1,860 Descending Denver Center
11:55AM 40.9808 -103.5964 186° South 331 381 18,300 -2,100 Descending Denver Center
11:56AM 40.8872 -103.6172 190° South 333 383 16,300 -1,260 Descending Denver Center
11:57AM 40.8014 -103.6414 192° South 313 360 15,800 -540 Descending Denver Center
11:58AM 40.7308 -103.6622 193° South 310 357 15,300 -780 Descending Denver Center
11:59AM 40.6336 -103.6864 191° South 303 349 14,300 -960 Descending Denver Center
12:00PM 40.5511 -103.7133 194° South 302 348 13,400 -600 Descending Denver Center
12:01PM 40.4922 -103.7858 223° Southwest 289 333 13,100 -180 Descending Denver Center
12:02PM 40.4306 -103.8631 224° Southwest 275 316 13,000  Descending Denver Center
12:03PM 40.3647 -103.9408 222° Southwest 259 298 13,100  Climbing Denver Center
12:04PM 40.3094 -104.0086 223° Southwest 272 313 13,000 -60 Descending Denver Center
12:05PM 40.2511 -104.0808 223° Southwest 270 311 13,000  Level Denver Center
12:07PM 40.1967 -104.1450 222° Southwest 266 306 13,100  Climbing Denver Center
12:08PM 40.1397 -104.2186 225° Southwest 268 308 13,100  Level Denver Center
12:09PM 40.0983 -104.2764 227° Southwest 281 323 13,100 -60 Level Denver Center
12:10PM 40.0361 -104.3722 230° Southwest 281 323 13,000 -180 Descending Denver Center
12:10PM 40.0000 -104.4167 223° Southwest 285 328 12,900 -900 Descending Denver TRACON
12:11PM 39.9333 -104.4833 217° Southwest 297 342 11,600 -900 Descending Denver TRACON
12:12PM 39.8500 -104.5000 189° South 293 337 11,100 -360 Descending Denver TRACON
12:13PM 39.8186 -104.5083 192° South 289 333 11,100 -360 Level Denver Center
12:14PM 39.7431 -104.5156 184° South 272 313 10,600 -600 Descending Denver Center
12:15PM 39.6683 -104.5244 185° South 268 308 9,900 -840 Descending Denver Center
12:16PM 39.6214 -104.5767 221° Southwest 238 274 8,900 -840 Descending Denver Center
12:17PM 39.6636 -104.6153 325° Northwest 193 222 8,200 -480 Descending Denver Center
12:18PM 39.7131 -104.6428 337° Northwest 181 208 8,000 -600 Descending Denver Center
12:19PM 39.7642 -104.6431 360° North 185 213 7,000 -1,080 Descending Denver Center
12:20PM 39.8117 -104.6419 North 159 183 5,800 -840 Descending Denver Center
12:21PM 39.8475 -104.6422 360° North 149 171 5,300 -540 Descending Denver Center
12:23PM 39.8500 -104.6667 346° North  Level FlightAware Approximate